createdAt,value
2022-11-03T00:01:14.656Z,55.53
2022-11-03T00:03:41.323Z,55.43
2022-11-03T00:06:08.469Z,55.48
2022-11-03T00:08:40.950Z,55.63
2022-11-03T00:11:13.464Z,55.56
2022-11-03T00:13:44.230Z,55.50
2022-11-03T00:16:12.412Z,55.48
2022-11-03T00:18:39.650Z,55.51
2022-11-03T00:21:08.848Z,55.51
2022-11-03T00:23:40.794Z,55.54
2022-11-03T00:26:13.612Z,55.61
2022-11-03T00:28:47.672Z,55.49
2022-11-03T00:31:19.425Z,55.27
2022-11-03T00:33:46.579Z,55.49
2022-11-03T00:36:16.334Z,55.39
2022-11-03T00:38:44.511Z,55.46
2022-11-03T00:41:12.421Z,55.39
2022-11-03T00:43:39.167Z,55.43
2022-11-03T00:46:07.244Z,55.21
2022-11-03T00:48:35.243Z,55.44
2022-11-03T00:51:22.882Z,55.24
2022-11-03T00:53:55.111Z,55.62
2022-11-03T00:56:26.041Z,55.17
2022-11-03T00:58:53.864Z,55.42
2022-11-03T01:01:26.478Z,55.88
2022-11-03T01:04:14.414Z,55.25
2022-11-03T01:06:52.363Z,55.44
2022-11-03T01:09:30.930Z,55.26
2022-11-03T01:12:27.605Z,55.31
2022-11-03T01:14:54.209Z,55.29
2022-11-03T01:17:23.645Z,55.42
2022-11-03T01:19:50.854Z,55.30
2022-11-03T01:22:18.283Z,55.34
2022-11-03T01:24:45.560Z,55.34
2022-11-03T01:27:14.826Z,55.51
2022-11-03T01:29:41.963Z,55.30
2022-11-03T01:32:09.028Z,55.08
2022-11-03T01:34:36.405Z,55.20
2022-11-03T01:37:03.943Z,55.16
2022-11-03T01:39:30.529Z,55.11
2022-11-03T01:41:57.394Z,55.13
2022-11-03T01:44:30.308Z,55.21
2022-11-03T01:47:07.819Z,55.27
2022-11-03T01:50:09.190Z,55.06
2022-11-03T01:52:44.908Z,54.85
2022-11-03T01:55:18.332Z,55.11
2022-11-03T01:57:50.852Z,55.25
2022-11-03T02:00:17.624Z,55.10
2022-11-03T02:02:45.132Z,55.31
2022-11-03T02:05:13.088Z,55.53
2022-11-03T02:10:41.136Z,55.33
2022-11-03T02:13:18.051Z,55.70
2022-11-03T02:15:46.199Z,55.49
2022-11-03T02:18:13.977Z,55.53
2022-11-03T02:20:42.485Z,55.78
2022-11-03T02:23:20.880Z,55.47
2022-11-03T02:25:55.687Z,55.75
2022-11-03T02:28:25.811Z,55.77
2022-11-03T02:31:16.448Z,55.61
2022-11-03T02:34:09.616Z,55.66
2022-11-03T02:37:00.049Z,56.05
2022-11-03T02:39:36.718Z,55.88
2022-11-03T02:42:04.789Z,55.88
2022-11-03T02:44:33.641Z,56.01
2022-11-03T02:47:06.280Z,55.99
2022-11-03T02:49:38.510Z,56.03
2022-11-03T02:52:06.060Z,56.07
2022-11-03T02:54:40.181Z,56.09
2022-11-03T02:57:21.764Z,56.46
2022-11-03T02:59:58.041Z,56.29
2022-11-03T03:02:34.838Z,56.25
2022-11-03T03:05:06.282Z,56.62
2022-11-03T03:07:37.703Z,56.42
2022-11-03T03:10:18.758Z,56.68
2022-11-03T03:12:51.077Z,56.61
2022-11-03T03:15:18.783Z,56.49
2022-11-03T03:17:52.626Z,56.64
2022-11-03T03:21:01.703Z,56.41
2022-11-03T03:23:35.660Z,56.48
2022-11-03T03:26:08.444Z,56.97
2022-11-03T03:28:48.530Z,56.51
2022-11-03T03:31:18.905Z,56.66
2022-11-03T03:33:47.992Z,56.81
2022-11-03T03:36:18.144Z,56.58
2022-11-03T03:38:52.208Z,56.33
2022-11-03T03:41:23.054Z,56.31
2022-11-03T03:43:52.444Z,56.49
2022-11-03T03:46:22.172Z,56.09
2022-11-03T03:48:49.172Z,55.96
2022-11-03T03:51:19.756Z,55.93
2022-11-03T03:53:51.481Z,55.87
2022-11-03T03:56:23.986Z,55.74
2022-11-03T03:58:50.755Z,55.58
2022-11-03T04:01:17.451Z,55.46
2022-11-03T04:03:44.132Z,55.33
2022-11-03T04:06:10.713Z,55.36
2022-11-03T04:08:37.335Z,55.23
2022-11-03T04:11:22.964Z,55.44
2022-11-03T04:14:08.339Z,55.32
2022-11-03T04:16:53.623Z,55.29
2022-11-03T04:19:39.028Z,55.37
2022-11-03T04:22:17.222Z,55.45
2022-11-03T04:24:51.989Z,55.13
2022-11-03T04:27:36.832Z,55.02
2022-11-03T04:30:29.833Z,55.27
2022-11-03T04:32:57.520Z,55.17
2022-11-03T04:35:26.280Z,55.15
2022-11-03T04:38:00.808Z,55.22
2022-11-03T04:40:28.191Z,55.05
2022-11-03T04:42:55.627Z,55.21
2022-11-03T04:45:34.144Z,55.06
2022-11-03T04:48:09.480Z,55.10
2022-11-03T04:50:36.075Z,54.81
2022-11-03T04:53:02.650Z,54.70
2022-11-03T04:55:29.233Z,54.77
2022-11-03T04:58:02.711Z,54.64
2022-11-03T05:00:29.403Z,54.34
2022-11-03T05:02:56.597Z,54.68
2022-11-03T05:05:26.525Z,54.46
2022-11-03T05:07:56.809Z,54.44
2022-11-03T05:10:29.412Z,52.53
2022-11-03T05:12:57.400Z,51.10
2022-11-03T05:15:51.386Z,54.35
2022-11-03T05:18:25.648Z,52.28
2022-11-03T05:20:59.689Z,53.71
2022-11-03T05:23:28.160Z,54.27
2022-11-03T05:25:58.075Z,54.73
2022-11-03T05:28:59.863Z,54.59
2022-11-03T05:31:29.492Z,55.22
2022-11-03T05:34:01.763Z,55.10
2022-11-03T05:36:29.902Z,55.71
2022-11-03T05:39:01.346Z,55.33
2022-11-03T05:41:30.551Z,55.08
2022-11-03T05:44:02.893Z,55.41
2022-11-03T05:46:32.952Z,55.68
2022-11-03T05:49:02.517Z,55.89
2022-11-03T05:51:34.916Z,55.85
2022-11-03T05:54:04.827Z,55.19
2022-11-03T05:56:33.101Z,55.95
2022-11-03T05:59:01.812Z,55.95
2022-11-03T06:01:36.212Z,55.82
2022-11-03T06:04:41.080Z,56.07
2022-11-03T06:07:24.911Z,55.92
2022-11-03T06:09:53.588Z,55.82
2022-11-03T06:12:22.290Z,55.62
2022-11-03T06:14:49.653Z,55.96
2022-11-03T06:17:25.723Z,55.61
2022-11-03T06:20:00.146Z,55.34
2022-11-03T06:22:31.084Z,55.41
2022-11-03T06:25:31.891Z,55.75
2022-11-03T06:28:06.446Z,55.52
2022-11-03T06:30:36.046Z,55.81
2022-11-03T06:33:12.810Z,55.94
2022-11-03T06:35:39.685Z,56.06
2022-11-03T06:38:16.482Z,56.06
2022-11-03T06:40:43.106Z,56.08
2022-11-03T06:43:16.851Z,56.14
2022-11-03T06:45:54.751Z,56.26
2022-11-03T06:48:25.043Z,56.26
2022-11-03T06:50:52.086Z,56.17
2022-11-03T06:53:25.738Z,56.24
2022-11-03T06:55:52.769Z,56.36
2022-11-03T06:58:32.697Z,56.14
2022-11-03T07:01:03.982Z,56.36
2022-11-03T07:03:33.658Z,56.20
2022-11-03T07:06:24.458Z,56.01
2022-11-03T07:08:56.893Z,56.28
2022-11-03T07:11:26.157Z,56.39
2022-11-03T07:13:57.774Z,56.54
2022-11-03T07:16:37.488Z,56.45
2022-11-03T07:19:10.300Z,56.29
2022-11-03T07:21:58.679Z,56.30
2022-11-03T07:24:29.964Z,56.35
2022-11-03T07:27:20.312Z,56.25
2022-11-03T07:29:48.313Z,56.17
2022-11-03T07:32:29.085Z,55.97
2022-11-03T07:35:05.776Z,56.31
2022-11-03T07:37:32.431Z,56.04
2022-11-03T07:39:59.133Z,56.15
2022-11-03T07:42:27.439Z,56.22
2022-11-03T07:44:56.311Z,56.08
2022-11-03T07:47:25.844Z,56.08
2022-11-03T07:49:52.777Z,56.16
2022-11-03T07:52:22.407Z,56.04
2022-11-03T07:54:51.397Z,56.29
2022-11-03T07:57:25.069Z,56.21
2022-11-03T08:00:08.816Z,56.14
2022-11-03T08:02:48.169Z,56.21
2022-11-03T08:05:15.052Z,56.18
2022-11-03T08:07:41.871Z,56.40
2022-11-03T08:10:09.644Z,56.46
2022-11-03T08:12:36.226Z,56.41
2022-11-03T08:15:02.906Z,56.23
2022-11-03T08:17:29.529Z,56.45
2022-11-03T08:19:56.364Z,56.42
2022-11-03T08:22:25.865Z,56.44
2022-11-03T08:24:53.214Z,56.31
2022-11-03T08:27:20.046Z,56.43
2022-11-03T08:29:47.051Z,56.33
2022-11-03T08:32:13.876Z,56.69
2022-11-03T08:34:40.605Z,56.55
2022-11-03T08:37:07.197Z,56.48
2022-11-03T08:39:36.056Z,56.80
2022-11-03T08:42:02.723Z,56.55
2022-11-03T08:44:29.508Z,56.40
2022-11-03T08:46:56.144Z,56.50
2022-11-03T08:49:22.727Z,56.49
2022-11-03T08:51:49.335Z,56.35
2022-11-03T08:54:15.931Z,56.65
2022-11-03T08:56:43.808Z,56.44
2022-11-03T08:59:10.609Z,56.44
2022-11-03T09:01:37.260Z,56.45
2022-11-03T09:04:04.168Z,56.50
2022-11-03T09:06:30.812Z,56.52
2022-11-03T09:11:44.346Z,56.38
2022-11-03T09:14:11.080Z,56.49
2022-11-03T09:16:37.656Z,56.49
2022-11-03T09:19:04.432Z,56.46
2022-11-03T09:21:31.068Z,56.47
2022-11-03T09:23:59.454Z,56.59
2022-11-03T09:26:27.077Z,56.18
2022-11-03T09:28:53.697Z,56.32
2022-11-03T09:31:20.532Z,56.53
2022-11-03T09:33:47.121Z,56.45
2022-11-03T09:36:13.924Z,56.41
2022-11-03T09:38:40.512Z,56.41
2022-11-03T09:41:18.537Z,56.56
2022-11-03T09:43:54.005Z,56.48
2022-11-03T09:46:20.985Z,56.63
2022-11-03T09:48:47.736Z,56.57
2022-11-03T09:51:19.978Z,56.68
2022-11-03T09:53:46.979Z,56.54
2022-11-03T09:56:14.008Z,56.51
2022-11-03T09:58:41.463Z,56.68
2022-11-03T10:01:11.374Z,56.68
2022-11-03T10:03:39.217Z,56.48
2022-11-03T10:06:09.657Z,56.52
2022-11-03T10:08:41.894Z,56.76
2022-11-03T10:11:09.387Z,56.83
2022-11-03T10:13:48.856Z,56.65
2022-11-03T10:16:18.553Z,56.73
2022-11-03T10:18:45.701Z,56.64
2022-11-03T10:21:20.516Z,56.68
2022-11-03T10:23:47.157Z,56.82
2022-11-03T10:26:18.697Z,56.81
2022-11-03T10:29:21.944Z,56.77
2022-11-03T10:31:51.491Z,56.56
2022-11-03T10:34:41.787Z,56.74
2022-11-03T10:37:25.996Z,56.85
2022-11-03T10:39:54.871Z,56.60
2022-11-03T10:42:35.526Z,56.74
2022-11-03T10:45:19.895Z,56.73
2022-11-03T10:48:01.513Z,56.58
2022-11-03T10:50:28.477Z,56.53
2022-11-03T10:52:55.489Z,56.48
2022-11-03T10:55:25.235Z,56.28
2022-11-03T10:57:55.671Z,56.32
2022-11-03T11:00:22.543Z,56.46
2022-11-03T11:02:51.715Z,56.51
2022-11-03T11:05:21.394Z,56.23
2022-11-03T11:07:51.203Z,56.40
2022-11-03T11:10:23.832Z,56.45
2022-11-03T11:13:25.909Z,56.48
2022-11-03T11:15:58.500Z,56.39
2022-11-03T11:19:08.252Z,56.56
2022-11-03T11:22:01.656Z,56.73
2022-11-03T11:25:03.901Z,56.55
2022-11-03T11:27:59.896Z,56.58
2022-11-03T11:30:58.700Z,56.63
2022-11-03T11:33:27.862Z,56.68
2022-11-03T11:36:18.809Z,56.68
2022-11-03T11:38:55.754Z,56.85
2022-11-03T11:42:00.507Z,56.72
2022-11-03T11:45:05.612Z,56.81
2022-11-03T11:47:52.615Z,56.80
2022-11-03T11:50:25.275Z,56.82
2022-11-03T11:53:00.970Z,56.52
2022-11-03T11:55:50.993Z,56.81
2022-11-03T11:58:42.420Z,56.89
2022-11-03T12:01:33.379Z,56.82
2022-11-03T12:04:14.475Z,56.95
2022-11-03T12:06:42.552Z,56.93
2022-11-03T12:09:22.992Z,56.91
2022-11-03T12:11:56.483Z,56.98
2022-11-03T12:14:34.224Z,56.91
2022-11-03T12:17:38.885Z,56.99
2022-11-03T12:20:35.839Z,56.91
2022-11-03T12:23:02.664Z,56.83
2022-11-03T12:25:35.204Z,56.92
2022-11-03T12:28:02.156Z,57.09
2022-11-03T12:30:28.981Z,57.09
2022-11-03T12:32:55.560Z,57.12
2022-11-03T12:35:22.303Z,57.13
2022-11-03T12:37:48.972Z,56.87
2022-11-03T12:40:15.690Z,56.85
2022-11-03T12:42:42.490Z,56.93
2022-11-03T12:45:10.013Z,57.12
2022-11-03T12:47:36.628Z,56.88
2022-11-03T12:50:04.328Z,56.84
2022-11-03T12:52:30.949Z,56.98
2022-11-03T12:54:57.568Z,56.88
2022-11-03T12:57:24.915Z,56.93
2022-11-03T12:59:52.403Z,56.84
2022-11-03T13:02:19.280Z,56.97
2022-11-03T13:04:45.952Z,57.04
2022-11-03T13:07:12.764Z,56.97
2022-11-03T13:09:39.371Z,56.84
2022-11-03T13:12:24.843Z,56.95
2022-11-03T13:14:51.641Z,56.81
2022-11-03T13:17:18.418Z,56.98
2022-11-03T13:19:45.050Z,57.04
2022-11-03T13:22:11.807Z,56.95
2022-11-03T13:24:38.679Z,56.92
2022-11-03T13:27:05.335Z,56.92
2022-11-03T13:29:35.425Z,57.10
2022-11-03T13:32:06.329Z,57.00
2022-11-03T13:34:32.916Z,56.79
2022-11-03T13:36:59.558Z,56.98
2022-11-03T13:39:26.457Z,57.08
2022-11-03T13:41:53.283Z,56.94
2022-11-03T13:44:19.883Z,57.03
2022-11-03T13:46:46.519Z,56.98
2022-11-03T13:51:59.885Z,56.60
2022-11-03T14:00:03.619Z,56.44
2022-11-03T14:05:18.769Z,56.13
2022-11-03T14:07:45.416Z,56.20
2022-11-03T14:10:12.089Z,56.05
2022-11-03T14:12:38.893Z,56.00
2022-11-03T14:15:08.737Z,55.97
2022-11-03T14:17:36.076Z,55.85
2022-11-03T14:20:04.807Z,55.98
2022-11-03T14:22:32.457Z,55.94
2022-11-03T14:24:59.870Z,56.05
2022-11-03T14:27:26.535Z,56.07
2022-11-03T14:29:53.267Z,55.83
2022-11-03T14:32:20.557Z,56.00
2022-11-03T14:34:47.977Z,55.96
2022-11-03T14:37:15.402Z,56.01
2022-11-03T14:39:42.234Z,56.04
2022-11-03T14:42:15.371Z,56.15
2022-11-03T14:44:44.057Z,56.03
2022-11-03T14:47:13.444Z,55.98
2022-11-03T14:49:40.433Z,55.94
2022-11-03T14:52:07.922Z,56.10
2022-11-03T14:54:34.835Z,56.07
2022-11-03T14:57:01.973Z,56.11
2022-11-03T14:59:29.012Z,56.26
2022-11-03T15:01:55.944Z,56.28
2022-11-03T15:04:22.756Z,56.33
2022-11-03T15:06:49.750Z,56.24
2022-11-03T15:09:16.900Z,56.29
2022-11-03T15:11:44.453Z,56.30
2022-11-03T15:14:11.998Z,56.18
2022-11-03T15:16:39.122Z,56.43
2022-11-03T15:19:06.721Z,56.32
2022-11-03T15:21:33.649Z,56.31
2022-11-03T15:26:48.034Z,56.53
2022-11-03T15:29:14.663Z,56.47
2022-11-03T15:31:47.175Z,56.43
2022-11-03T15:34:15.260Z,56.55
2022-11-03T15:36:42.062Z,56.60
2022-11-03T15:39:08.736Z,56.48
2022-11-03T15:41:35.384Z,56.46
2022-11-03T15:44:01.993Z,56.56
2022-11-03T15:46:28.592Z,56.68
2022-11-03T15:48:56.595Z,56.77
2022-11-03T15:51:25.280Z,56.93
2022-11-03T15:53:57.927Z,56.83
2022-11-03T15:56:28.564Z,56.53
2022-11-03T15:58:55.180Z,56.87
2022-11-03T16:01:21.915Z,56.79
2022-11-03T16:03:48.823Z,56.91
2022-11-03T16:06:15.405Z,56.97
2022-11-03T16:08:41.997Z,57.04
2022-11-03T16:11:09.089Z,57.10
2022-11-03T16:13:36.019Z,57.04
2022-11-03T16:16:03.150Z,57.12
2022-11-03T16:18:33.035Z,57.00
2022-11-03T16:20:59.620Z,57.14
2022-11-03T16:23:26.420Z,57.25
2022-11-03T16:25:53.944Z,57.24
2022-11-03T16:28:20.613Z,57.22
2022-11-03T16:30:52.821Z,57.15
2022-11-03T16:33:20.806Z,57.35
2022-11-03T16:35:47.413Z,57.42
2022-11-03T16:38:15.384Z,57.31
2022-11-03T16:40:42.738Z,57.31
2022-11-03T16:43:09.596Z,57.54
2022-11-03T16:45:37.985Z,57.46
2022-11-03T16:48:06.230Z,57.61
2022-11-03T16:50:33.504Z,57.40
2022-11-03T16:53:00.138Z,57.42
2022-11-03T16:55:26.783Z,57.54
2022-11-03T16:57:53.382Z,57.73
2022-11-03T17:00:20.922Z,57.54
2022-11-03T17:02:47.650Z,57.65
2022-11-03T17:05:16.608Z,57.62
2022-11-03T17:07:45.347Z,57.69
2022-11-03T17:10:14.248Z,57.56
2022-11-03T17:12:40.927Z,57.67
2022-11-03T17:15:08.090Z,57.70
2022-11-03T17:17:35.146Z,56.53
2022-11-03T17:20:02.096Z,57.09
2022-11-03T17:22:28.716Z,58.55
2022-11-03T17:24:55.627Z,60.11
2022-11-03T17:27:31.758Z,60.26
2022-11-03T17:30:08.717Z,60.39
2022-11-03T17:32:38.974Z,60.64
2022-11-03T17:35:46.254Z,60.92
2022-11-03T17:38:17.872Z,61.54
2022-11-03T17:40:46.816Z,61.91
2022-11-03T17:43:20.986Z,62.35
2022-11-03T17:45:47.585Z,62.69
2022-11-03T17:48:14.344Z,63.33
2022-11-03T17:50:49.508Z,63.62
2022-11-03T17:53:31.223Z,63.68
2022-11-03T17:58:47.795Z,63.99
2022-11-03T18:01:22.660Z,64.16
2022-11-03T18:03:49.429Z,63.99
2022-11-03T18:06:19.187Z,64.20
2022-11-03T18:08:47.517Z,64.07
2022-11-03T18:11:43.168Z,64.49
2022-11-03T18:14:09.993Z,64.97
2022-11-03T18:16:36.691Z,65.29
2022-11-03T18:19:04.165Z,65.12
2022-11-03T18:21:30.977Z,65.13
2022-11-03T18:23:58.788Z,65.06
2022-11-03T18:26:26.929Z,65.32
2022-11-03T18:28:54.055Z,65.51
2022-11-03T18:31:43.196Z,64.88
2022-11-03T18:34:19.845Z,62.85
2022-11-03T18:36:46.783Z,61.49
2022-11-03T18:39:25.481Z,60.47
2022-11-03T18:41:52.329Z,60.07
2022-11-03T18:44:24.346Z,59.80
2022-11-03T18:46:52.860Z,59.34
2022-11-03T18:49:19.741Z,59.27
2022-11-03T18:52:02.817Z,59.16
2022-11-03T18:54:31.699Z,59.26
2022-11-03T18:56:59.213Z,58.93
2022-11-03T18:59:31.838Z,58.98
2022-11-03T19:01:59.116Z,59.25
2022-11-03T19:04:25.906Z,58.99
2022-11-03T19:06:52.919Z,59.05
2022-11-03T19:09:22.689Z,59.37
2022-11-03T19:11:50.276Z,59.25
2022-11-03T19:14:28.512Z,58.79
2022-11-03T19:19:45.207Z,59.15
2022-11-03T19:22:14.266Z,59.14
2022-11-03T19:24:41.597Z,59.14
2022-11-03T19:27:31.047Z,58.89
2022-11-03T19:29:59.521Z,59.10
2022-11-03T19:32:34.287Z,59.29
2022-11-03T19:35:23.040Z,59.13
2022-11-03T19:38:02.572Z,59.15
2022-11-03T19:40:29.992Z,58.95
2022-11-03T19:42:57.819Z,59.19
2022-11-03T19:45:25.155Z,59.16
2022-11-03T19:50:49.473Z,59.25
2022-11-03T19:53:22.393Z,58.99
2022-11-03T19:55:49.925Z,59.12
2022-11-03T19:58:21.471Z,59.25
2022-11-03T20:00:49.283Z,59.15
2022-11-03T20:03:16.244Z,58.99
2022-11-03T20:05:48.935Z,58.94
2022-11-03T20:08:19.751Z,58.58
2022-11-03T20:10:47.945Z,58.59
2022-11-03T20:13:17.937Z,58.20
2022-11-03T20:15:44.572Z,58.13
2022-11-03T20:18:15.049Z,58.14
2022-11-03T20:20:43.797Z,57.89
2022-11-03T20:23:30.955Z,57.90
2022-11-03T20:25:58.266Z,57.76
2022-11-03T20:28:28.406Z,57.74
2022-11-03T20:30:56.280Z,57.72
2022-11-03T20:33:25.152Z,57.62
2022-11-03T20:35:53.577Z,57.54
2022-11-03T20:38:21.220Z,57.69
2022-11-03T20:40:51.304Z,57.33
2022-11-03T20:43:31.603Z,57.46
2022-11-03T20:45:59.192Z,57.48
2022-11-03T20:48:25.862Z,57.40
2022-11-03T20:50:53.746Z,57.29
2022-11-03T20:53:23.246Z,57.43
2022-11-03T20:55:52.189Z,57.43
2022-11-03T20:58:19.028Z,57.30
2022-11-03T21:00:47.560Z,57.31
2022-11-03T21:06:16.542Z,57.38
2022-11-03T21:08:44.856Z,57.34
2022-11-03T21:11:23.716Z,57.42
2022-11-03T21:13:58.376Z,57.37
2022-11-03T21:16:45.516Z,57.26
2022-11-03T21:19:58.512Z,57.41
2022-11-03T21:25:19.728Z,57.26
2022-11-03T21:27:47.496Z,57.24
2022-11-03T21:30:16.693Z,57.31
2022-11-03T21:32:43.425Z,57.36
2022-11-03T21:35:14.570Z,57.23
2022-11-03T21:37:41.164Z,57.14
2022-11-03T21:40:08.732Z,57.17
2022-11-03T21:42:54.117Z,57.24
2022-11-03T21:45:20.967Z,57.11
2022-11-03T21:48:12.893Z,57.12
2022-11-03T21:50:40.842Z,57.24
2022-11-03T21:53:07.871Z,57.19
2022-11-03T21:55:35.142Z,57.01
2022-11-03T21:58:02.684Z,57.26
2022-11-03T22:00:29.595Z,57.08
2022-11-03T22:02:56.456Z,57.07
2022-11-03T22:05:23.084Z,56.94
2022-11-03T22:07:49.885Z,57.09
2022-11-03T22:10:17.830Z,57.05
2022-11-03T22:12:44.681Z,57.18
2022-11-03T22:15:30.256Z,57.09
2022-11-03T22:18:01.392Z,57.23
2022-11-03T22:20:46.495Z,57.10
2022-11-03T22:23:34.050Z,57.30
2022-11-03T22:26:20.253Z,57.32
2022-11-03T22:29:06.904Z,57.17
2022-11-03T22:31:42.332Z,57.42
2022-11-03T22:34:27.571Z,57.42
2022-11-03T22:36:54.366Z,57.52
2022-11-03T22:39:39.483Z,57.73
2022-11-03T22:42:24.941Z,57.57
2022-11-03T22:45:10.380Z,57.63
2022-11-03T22:47:37.010Z,57.63
2022-11-03T22:50:03.830Z,57.60
2022-11-03T22:52:30.419Z,57.65
2022-11-03T22:54:56.986Z,57.55
2022-11-03T22:57:23.619Z,57.47
2022-11-03T22:59:50.403Z,57.39
2022-11-03T23:02:17.012Z,57.73
2022-11-03T23:04:43.716Z,57.36
2022-11-03T23:07:10.280Z,57.56
2022-11-03T23:09:36.859Z,57.33
2022-11-03T23:12:03.870Z,57.35
2022-11-03T23:14:50.372Z,57.43
2022-11-03T23:17:17.722Z,57.47
2022-11-03T23:20:02.895Z,57.27
2022-11-03T23:22:29.789Z,57.52
2022-11-03T23:24:59.237Z,57.50
2022-11-03T23:27:25.876Z,57.56
2022-11-03T23:29:52.525Z,57.33
2022-11-03T23:32:19.379Z,57.51
2022-11-03T23:34:46.178Z,57.56
2022-11-03T23:37:12.805Z,57.38
2022-11-03T23:39:39.400Z,57.40
2022-11-03T23:42:06.335Z,57.46
2022-11-03T23:44:52.923Z,57.71
2022-11-03T23:47:38.010Z,57.55
2022-11-03T23:50:05.400Z,57.49
2022-11-03T23:52:32.042Z,57.67
2022-11-03T23:54:58.627Z,57.60
2022-11-03T23:57:43.953Z,57.44
